createdAt,value
2019-04-16T00:02:18.483Z,10.48
2019-04-16T00:04:53.353Z,10.05
2019-04-16T00:07:41.526Z,10.10
2019-04-16T00:10:20.762Z,11.57
2019-04-16T00:12:56.203Z,10.38
2019-04-16T00:15:29.060Z,10.38
2019-04-16T00:18:01.781Z,10.30
2019-04-16T00:20:37.958Z,10.93
2019-04-16T00:23:26.388Z,10.58
2019-04-16T00:25:58.159Z,10.50
2019-04-16T00:28:33.353Z,9.88
2019-04-16T00:31:06.169Z,10.58
2019-04-16T00:33:39.388Z,10.45
2019-04-16T00:36:15.383Z,9.43
2019-04-16T00:38:47.772Z,9.35
2019-04-16T00:41:20.289Z,9.88
2019-04-16T00:43:52.880Z,10.60
2019-04-16T00:46:25.568Z,9.95
2019-04-16T00:48:58.595Z,10.00
2019-04-16T00:51:30.979Z,9.85
2019-04-16T00:54:09.888Z,11.10
2019-04-16T00:56:39.057Z,10.88
2019-04-16T00:59:10.842Z,11.70
2019-04-16T01:01:42.410Z,10.60
2019-04-16T01:04:14.868Z,10.05
2019-04-16T01:06:47.430Z,11.05
2019-04-16T01:09:19.937Z,10.40
2019-04-16T01:11:52.516Z,10.68
2019-04-16T01:14:27.447Z,10.95
2019-04-16T01:17:03.843Z,10.75
2019-04-16T01:19:33.972Z,11.85
2019-04-16T01:22:06.627Z,11.70
2019-04-16T01:24:40.269Z,10.82
2019-04-16T01:27:11.515Z,10.40
2019-04-16T01:29:45.016Z,10.82
2019-04-16T01:32:19.151Z,14.53
2019-04-16T01:35:11.786Z,11.05
2019-04-16T01:38:04.445Z,10.75
2019-04-16T01:40:40.574Z,10.80
2019-04-16T01:43:11.866Z,11.70
2019-04-16T01:45:44.249Z,10.88
2019-04-16T01:48:18.573Z,11.08
2019-04-16T01:50:51.199Z,11.37
2019-04-16T01:53:23.028Z,11.68
2019-04-16T01:55:57.018Z,11.20
2019-04-16T01:58:33.854Z,12.93
2019-04-16T02:01:07.945Z,11.10
2019-04-16T02:03:41.244Z,12.70
2019-04-16T02:06:13.737Z,12.27
2019-04-16T02:08:46.265Z,11.38
2019-04-16T02:11:21.953Z,11.68
2019-04-16T02:13:53.760Z,12.37
2019-04-16T02:16:26.005Z,12.10
2019-04-16T02:19:00.759Z,14.93
2019-04-16T02:21:32.103Z,13.65
2019-04-16T02:24:07.673Z,12.47
2019-04-16T02:26:42.143Z,12.68
2019-04-16T02:29:14.726Z,12.23
2019-04-16T02:31:51.287Z,12.37
2019-04-16T02:34:21.917Z,13.55
2019-04-16T02:37:00.894Z,20.50
2019-04-16T02:39:46.976Z,12.78
2019-04-16T02:44:38.622Z,12.98
2019-04-16T02:47:11.395Z,12.15
2019-04-16T02:49:43.824Z,11.73
2019-04-16T02:52:19.209Z,12.05
2019-04-16T02:54:54.813Z,12.60
2019-04-16T02:57:30.533Z,12.35
2019-04-16T03:00:05.116Z,13.20
2019-04-16T03:02:40.674Z,13.45
2019-04-16T03:05:17.518Z,12.70
2019-04-16T03:07:51.456Z,12.80
2019-04-16T03:10:25.980Z,12.95
2019-04-16T03:13:00.826Z,12.88
2019-04-16T03:15:49.712Z,12.90
2019-04-16T03:18:26.196Z,13.30
2019-04-16T03:20:59.011Z,13.10
2019-04-16T03:23:36.487Z,13.40
2019-04-16T03:26:05.484Z,11.95
2019-04-16T03:28:42.726Z,12.78
2019-04-16T03:31:20.185Z,13.03
2019-04-16T03:33:50.227Z,14.13
2019-04-16T03:36:26.586Z,12.55
2019-04-16T03:38:56.759Z,13.03
2019-04-16T03:41:29.237Z,12.37
2019-04-16T03:44:04.136Z,13.32
2019-04-16T03:46:34.666Z,13.62
2019-04-16T03:49:09.981Z,12.95
2019-04-16T03:51:42.617Z,12.18
2019-04-16T03:54:14.590Z,13.50
2019-04-16T03:56:48.555Z,12.63
2019-04-16T03:59:21.237Z,12.78
2019-04-16T04:01:53.883Z,12.93
2019-04-16T04:04:29.005Z,11.88
2019-04-16T04:06:59.508Z,12.63
2019-04-16T04:09:32.512Z,12.03
2019-04-16T04:12:06.204Z,12.50
2019-04-16T04:14:38.588Z,12.63
2019-04-16T04:17:11.038Z,13.18
2019-04-16T04:19:43.480Z,12.65
2019-04-16T04:22:17.025Z,13.95
2019-04-16T04:24:49.389Z,12.50
2019-04-16T04:27:24.152Z,12.18
2019-04-16T04:29:57.265Z,11.68
2019-04-16T04:32:35.365Z,12.43
2019-04-16T04:35:05.488Z,12.03
2019-04-16T04:37:40.153Z,12.20
2019-04-16T04:40:15.854Z,12.33
2019-04-16T04:42:47.970Z,12.33
2019-04-16T04:45:20.767Z,11.73
2019-04-16T04:47:53.217Z,11.00
2019-04-16T04:50:28.720Z,11.78
2019-04-16T04:53:02.297Z,11.83
2019-04-16T04:55:35.058Z,12.00
2019-04-16T04:58:07.567Z,11.30
2019-04-16T05:00:41.124Z,11.65
2019-04-16T05:03:15.879Z,10.68
2019-04-16T05:05:50.517Z,11.38
2019-04-16T05:08:22.059Z,11.17
2019-04-16T05:10:59.784Z,10.72
2019-04-16T05:13:27.810Z,10.72
2019-04-16T05:16:02.011Z,11.53
2019-04-16T05:18:34.790Z,10.98
2019-04-16T05:21:07.423Z,10.72
2019-04-16T05:23:40.195Z,10.55
2019-04-16T05:26:13.981Z,10.30
2019-04-16T05:28:47.445Z,11.48
2019-04-16T05:31:24.384Z,11.40
2019-04-16T05:33:54.201Z,12.25
2019-04-16T05:36:30.033Z,11.88
2019-04-16T05:39:05.863Z,11.53
2019-04-16T05:41:40.261Z,10.60
2019-04-16T05:44:13.876Z,11.18
2019-04-16T05:46:47.940Z,11.18
2019-04-16T05:49:24.609Z,11.27
2019-04-16T05:51:53.862Z,10.98
2019-04-16T05:54:34.843Z,12.07
2019-04-16T05:57:11.061Z,11.70
2019-04-16T05:59:45.277Z,11.50
2019-04-16T06:02:19.952Z,12.23
2019-04-16T06:04:55.571Z,11.53
2019-04-16T06:07:26.235Z,12.10
2019-04-16T06:09:58.768Z,16.60
2019-04-16T06:12:39.884Z,11.08
2019-04-16T06:15:28.184Z,10.40
2019-04-16T06:18:21.265Z,9.55
2019-04-16T06:20:57.381Z,9.25
2019-04-16T06:23:32.669Z,11.05
2019-04-16T06:26:06.867Z,11.25
2019-04-16T06:28:42.592Z,9.88
2019-04-16T06:31:33.360Z,9.88
2019-04-16T06:34:09.203Z,9.45
2019-04-16T06:36:50.648Z,9.35
2019-04-16T06:39:42.637Z,8.55
2019-04-16T06:42:21.721Z,9.90
2019-04-16T06:44:54.836Z,8.78
2019-04-16T06:47:31.854Z,9.10
2019-04-16T06:50:31.213Z,9.08
2019-04-16T06:53:13.564Z,9.43
2019-04-16T06:55:51.142Z,9.83
2019-04-16T06:58:27.965Z,10.10
2019-04-16T07:01:10.604Z,10.18
2019-04-16T07:03:49.980Z,9.68
2019-04-16T07:06:40.186Z,9.00
2019-04-16T07:09:15.623Z,8.35
2019-04-16T07:11:54.542Z,9.28
2019-04-16T07:14:26.711Z,9.58
2019-04-16T07:17:00.139Z,9.88
2019-04-16T07:19:33.589Z,9.78
2019-04-16T07:22:11.413Z,9.78
2019-04-16T07:24:44.314Z,9.48
2019-04-16T07:27:20.201Z,10.50
2019-04-16T07:29:54.631Z,9.78
2019-04-16T07:32:45.377Z,9.98
2019-04-16T07:35:27.172Z,9.85
2019-04-16T07:38:16.941Z,8.90
2019-04-16T07:41:10.972Z,10.58
2019-04-16T07:43:58.331Z,10.63
2019-04-16T07:46:32.790Z,10.45
2019-04-16T07:49:08.653Z,10.43
2019-04-16T07:51:57.909Z,10.45
2019-04-16T07:54:49.767Z,10.45
2019-04-16T07:57:22.563Z,10.93
2019-04-16T07:59:54.359Z,10.68
2019-04-16T08:02:29.137Z,11.40
2019-04-16T08:05:07.450Z,10.53
2019-04-16T08:07:39.264Z,10.38
2019-04-16T08:10:16.876Z,11.60
2019-04-16T08:12:50.603Z,10.68
2019-04-16T08:15:23.902Z,10.43
2019-04-16T08:17:57.910Z,9.98
2019-04-16T08:20:33.183Z,10.70
2019-04-16T08:23:07.160Z,10.48
2019-04-16T08:25:41.527Z,10.57
2019-04-16T08:28:15.954Z,11.05
2019-04-16T08:30:50.016Z,11.33
2019-04-16T08:33:28.286Z,12.63
2019-04-16T08:35:59.040Z,12.18
2019-04-16T08:38:34.888Z,11.40
2019-04-16T08:41:07.536Z,11.55
2019-04-16T08:43:41.085Z,12.30
2019-04-16T08:46:16.012Z,11.80
2019-04-16T08:48:54.278Z,11.73
2019-04-16T08:51:30.686Z,11.85
2019-04-16T08:54:06.299Z,11.78
2019-04-16T08:56:40.211Z,11.10
2019-04-16T08:59:15.018Z,12.43
2019-04-16T09:01:47.848Z,12.05
2019-04-16T09:04:22.752Z,11.60
2019-04-16T09:07:09.679Z,12.30
2019-04-16T09:09:32.133Z,11.90
2019-04-16T09:12:29.177Z,11.60
2019-04-16T09:15:00.016Z,11.22
2019-04-16T09:17:33.918Z,12.33
2019-04-16T09:20:17.103Z,11.78
2019-04-16T09:22:53.675Z,12.07
2019-04-16T09:25:26.875Z,12.00
2019-04-16T09:28:13.154Z,11.63
2019-04-16T09:30:46.651Z,11.65
2019-04-16T09:33:20.981Z,11.35
2019-04-16T09:36:12.481Z,11.43
2019-04-16T09:38:54.304Z,11.28
2019-04-16T09:41:37.094Z,11.03
2019-04-16T09:44:10.426Z,11.00
2019-04-16T09:46:51.166Z,11.00
2019-04-16T09:49:23.277Z,11.12
2019-04-16T09:51:55.481Z,11.73
2019-04-16T09:54:29.660Z,11.43
2019-04-16T09:57:02.367Z,11.88
2019-04-16T09:59:36.225Z,11.33
2019-04-16T10:02:10.401Z,11.10
2019-04-16T10:04:43.205Z,11.97
2019-04-16T10:07:16.027Z,12.00
2019-04-16T10:09:51.324Z,12.10
2019-04-16T10:12:25.686Z,12.15
2019-04-16T10:15:00.304Z,12.15
2019-04-16T10:20:06.534Z,11.60
2019-04-16T10:22:39.525Z,11.83
2019-04-16T10:25:13.957Z,11.63
2019-04-16T10:27:49.864Z,12.15
2019-04-16T10:30:29.771Z,11.60
2019-04-16T10:33:05.961Z,12.25
2019-04-16T10:35:41.175Z,12.10
2019-04-16T10:38:17.142Z,12.07
2019-04-16T10:40:51.882Z,12.63
2019-04-16T10:46:09.869Z,13.00
2019-04-16T10:48:46.882Z,12.47
2019-04-16T10:51:28.211Z,12.40
2019-04-16T10:54:19.223Z,13.62
2019-04-16T10:57:10.443Z,13.08
2019-04-16T11:00:03.690Z,13.40
2019-04-16T11:02:37.802Z,12.60
2019-04-16T11:05:28.382Z,12.55
2019-04-16T11:08:07.463Z,12.50
2019-04-16T11:10:40.184Z,12.50
2019-04-16T11:13:13.210Z,12.55
2019-04-16T11:15:46.171Z,12.95
2019-04-16T11:18:19.014Z,16.07
2019-04-16T11:20:52.908Z,15.60
2019-04-16T11:23:25.685Z,14.90
2019-04-16T11:25:58.537Z,16.17
2019-04-16T11:28:33.971Z,16.57
2019-04-16T11:31:16.450Z,19.50
2019-04-16T11:33:49.059Z,19.57
2019-04-16T11:36:21.634Z,24.63
2019-04-16T11:38:53.138Z,27.80
2019-04-16T11:41:27.815Z,29.50
2019-04-16T11:46:39.393Z,31.65
2019-04-16T11:49:14.642Z,27.73
2019-04-16T11:51:56.393Z,26.52
2019-04-16T11:54:31.200Z,22.90
2019-04-16T11:57:03.839Z,21.35
2019-04-16T11:59:38.212Z,22.37
2019-04-16T12:02:12.083Z,21.77
2019-04-16T12:04:55.935Z,19.95
2019-04-16T12:07:24.114Z,19.65
2019-04-16T12:10:03.211Z,16.50
2019-04-16T12:12:37.094Z,15.50
2019-04-16T12:15:26.074Z,14.78
2019-04-16T12:18:04.699Z,15.48
2019-04-16T12:20:57.129Z,15.28
2019-04-16T12:23:47.021Z,14.10
2019-04-16T12:26:19.350Z,13.28
2019-04-16T12:28:52.183Z,13.38
2019-04-16T12:31:26.454Z,13.43
2019-04-16T12:34:01.387Z,13.40
2019-04-16T12:36:53.999Z,13.00
2019-04-16T12:39:35.993Z,13.43
2019-04-16T12:42:13.559Z,12.47
2019-04-16T12:45:03.977Z,13.18
2019-04-16T12:47:37.912Z,12.98
2019-04-16T12:50:16.703Z,13.28
2019-04-16T12:52:59.482Z,13.80
2019-04-16T12:55:43.317Z,14.15
2019-04-16T12:58:20.016Z,14.50
2019-04-16T13:00:53.404Z,14.60
2019-04-16T13:03:34.205Z,14.00
2019-04-16T13:06:26.965Z,14.43
2019-04-16T13:09:19.607Z,13.62
2019-04-16T13:11:54.716Z,12.98
2019-04-16T13:14:30.335Z,13.65
2019-04-16T13:17:29.192Z,13.13
2019-04-16T13:20:10.368Z,12.58
2019-04-16T13:22:44.084Z,13.43
2019-04-16T13:25:17.975Z,13.30
2019-04-16T13:27:51.689Z,13.15
2019-04-16T13:30:24.354Z,14.10
2019-04-16T13:32:57.136Z,14.00
2019-04-16T13:35:29.631Z,14.40
2019-04-16T13:38:08.016Z,14.25
2019-04-16T13:40:41.309Z,13.32
2019-04-16T13:43:12.905Z,12.53
2019-04-16T13:45:46.976Z,13.25
2019-04-16T13:48:21.222Z,13.85
2019-04-16T13:50:55.072Z,15.03
2019-04-16T13:53:32.985Z,12.82
2019-04-16T13:56:24.057Z,13.75
2019-04-16T13:59:07.150Z,12.65
2019-04-16T14:01:59.122Z,12.47
2019-04-16T14:04:36.739Z,13.40
2019-04-16T14:07:07.563Z,13.83
2019-04-16T14:09:44.117Z,13.80
2019-04-16T14:12:15.484Z,13.00
2019-04-16T14:14:49.474Z,13.80
2019-04-16T14:17:26.183Z,13.75
2019-04-16T14:19:58.816Z,14.00
2019-04-16T14:22:31.710Z,13.25
2019-04-16T14:25:04.160Z,14.18
2019-04-16T14:27:38.057Z,14.05
2019-04-16T14:30:33.490Z,13.60
2019-04-16T14:33:08.015Z,13.70
2019-04-16T14:35:41.614Z,13.90
2019-04-16T14:38:17.593Z,13.20
2019-04-16T14:40:50.590Z,13.90
2019-04-16T14:43:29.419Z,14.45
2019-04-16T14:46:01.740Z,17.73
2019-04-16T14:48:39.083Z,21.02
2019-04-16T14:51:11.891Z,17.85
2019-04-16T14:53:46.051Z,14.28
2019-04-16T14:56:36.489Z,14.90
2019-04-16T14:59:34.128Z,15.43
2019-04-16T15:02:03.192Z,14.93
2019-04-16T15:04:40.113Z,14.58
2019-04-16T15:07:18.798Z,15.00
2019-04-16T15:09:54.244Z,15.13
2019-04-16T15:12:48.142Z,15.60
2019-04-16T15:15:37.397Z,14.90
2019-04-16T15:18:29.998Z,15.70
2019-04-16T15:21:10.233Z,14.47
2019-04-16T15:23:42.550Z,14.23
2019-04-16T15:26:32.889Z,15.08
2019-04-16T15:29:07.026Z,14.50
2019-04-16T15:31:56.951Z,14.60
2019-04-16T15:34:33.227Z,14.05
2019-04-16T15:37:27.585Z,14.15
2019-04-16T15:40:00.710Z,13.30
2019-04-16T15:42:50.978Z,14.00
2019-04-16T15:45:28.924Z,14.58
2019-04-16T15:48:18.950Z,15.53
2019-04-16T15:51:14.809Z,14.65
2019-04-16T15:53:50.470Z,14.40
2019-04-16T15:56:39.884Z,14.73
2019-04-16T15:59:15.060Z,14.45
2019-04-16T16:02:07.962Z,15.10
2019-04-16T16:04:42.075Z,14.78
2019-04-16T16:07:17.124Z,15.30
2019-04-16T16:09:58.073Z,15.20
2019-04-16T16:12:30.061Z,14.73
2019-04-16T16:15:07.621Z,15.50
2019-04-16T16:17:39.404Z,15.18
2019-04-16T16:20:11.449Z,16.42
2019-04-16T16:22:44.423Z,15.40
2019-04-16T16:25:17.150Z,14.73
2019-04-16T16:27:49.522Z,15.72
2019-04-16T16:30:24.788Z,15.40
2019-04-16T16:32:59.207Z,15.75
2019-04-16T16:35:34.597Z,16.70
2019-04-16T16:38:11.159Z,15.93
2019-04-16T16:40:43.705Z,16.25
2019-04-16T16:43:15.548Z,15.53
2019-04-16T16:46:07.845Z,16.05
2019-04-16T16:48:40.934Z,15.15
2019-04-16T16:51:14.863Z,16.30
2019-04-16T16:54:02.501Z,15.70
2019-04-16T16:56:51.754Z,15.48
2019-04-16T16:59:28.732Z,16.20
2019-04-16T17:02:08.602Z,16.75
2019-04-16T17:04:38.897Z,15.58
2019-04-16T17:07:13.196Z,16.60
2019-04-16T17:09:47.192Z,16.40
2019-04-16T17:12:19.779Z,15.83
2019-04-16T17:14:51.318Z,16.15
2019-04-16T17:17:23.697Z,15.53
2019-04-16T17:20:00.018Z,16.73
2019-04-16T17:22:32.743Z,16.77
2019-04-16T17:25:04.628Z,15.65
2019-04-16T17:27:50.695Z,15.83
2019-04-16T17:30:12.215Z,16.23
2019-04-16T17:32:44.892Z,15.63
2019-04-16T17:35:16.570Z,16.30
2019-04-16T17:37:48.995Z,16.00
2019-04-16T17:40:28.978Z,16.27
2019-04-16T17:43:02.873Z,16.20
2019-04-16T17:45:42.893Z,15.98
2019-04-16T17:48:21.000Z,17.77
2019-04-16T17:51:02.838Z,17.82
2019-04-16T17:53:34.387Z,17.75
2019-04-16T17:56:13.947Z,16.90
2019-04-16T17:59:07.328Z,16.62
2019-04-16T18:01:58.142Z,16.70
2019-04-16T18:04:38.493Z,17.12
2019-04-16T18:07:30.490Z,18.67
2019-04-16T18:10:26.447Z,19.35
2019-04-16T18:13:00.795Z,21.02
2019-04-16T18:15:33.632Z,22.02
2019-04-16T18:18:07.537Z,21.10
2019-04-16T18:20:41.023Z,20.90
2019-04-16T18:23:15.702Z,22.13
2019-04-16T18:26:03.640Z,22.95
2019-04-16T18:28:53.909Z,23.95
2019-04-16T18:31:45.617Z,26.02
2019-04-16T18:34:40.272Z,27.45
2019-04-16T18:37:17.580Z,28.40
2019-04-16T18:40:07.974Z,27.48
2019-04-16T18:43:01.896Z,28.05
2019-04-16T18:45:36.030Z,28.95
2019-04-16T18:48:24.605Z,30.20
2019-04-16T18:50:59.934Z,30.05
2019-04-16T18:53:31.050Z,29.63
2019-04-16T18:56:03.674Z,30.23
2019-04-16T18:58:37.163Z,30.75
2019-04-16T19:01:11.784Z,30.30
2019-04-16T19:03:49.860Z,28.83
2019-04-16T19:06:23.095Z,28.90
2019-04-16T19:08:59.231Z,28.98
2019-04-16T19:11:30.803Z,27.17
2019-04-16T19:14:03.215Z,28.35
2019-04-16T19:16:34.734Z,28.35
2019-04-16T19:19:07.324Z,27.62
2019-04-16T19:21:42.335Z,27.42
2019-04-16T19:24:16.147Z,27.93
2019-04-16T19:26:53.618Z,27.67
2019-04-16T19:29:25.977Z,27.05
2019-04-16T19:31:58.943Z,27.00
2019-04-16T19:34:33.333Z,26.20
2019-04-16T19:37:05.801Z,26.30
2019-04-16T19:39:38.688Z,26.07
2019-04-16T19:42:11.675Z,25.23
2019-04-16T19:44:44.067Z,24.35
2019-04-16T19:47:18.059Z,23.40
2019-04-16T19:49:49.705Z,24.85
2019-04-16T19:52:21.114Z,24.98
2019-04-16T19:54:53.573Z,23.92
2019-04-16T19:57:25.368Z,22.98
2019-04-16T19:59:57.830Z,22.93
2019-04-16T20:02:32.956Z,22.70
2019-04-16T20:05:07.265Z,21.73
2019-04-16T20:07:38.758Z,20.97
2019-04-16T20:10:10.549Z,22.27
2019-04-16T20:12:43.106Z,21.55
2019-04-16T20:15:15.889Z,21.93
2019-04-16T20:17:48.433Z,19.55
2019-04-16T20:20:19.923Z,20.20
2019-04-16T20:22:51.425Z,19.87
2019-04-16T20:25:23.876Z,21.20
2019-04-16T20:27:55.336Z,19.60
2019-04-16T20:30:28.880Z,20.23
2019-04-16T20:33:00.602Z,20.50
2019-04-16T20:35:33.139Z,19.32
2019-04-16T20:38:06.541Z,20.02
2019-04-16T20:40:37.966Z,20.48
2019-04-16T20:43:10.273Z,19.95
2019-04-16T20:45:43.117Z,20.00
2019-04-16T20:48:17.236Z,20.68
2019-04-16T20:50:52.733Z,22.05
2019-04-16T20:53:22.489Z,20.90
2019-04-16T20:55:54.809Z,21.80
2019-04-16T20:58:30.661Z,22.20
2019-04-16T21:01:02.647Z,22.90
2019-04-16T21:03:33.925Z,23.75
2019-04-16T21:06:07.818Z,21.30
2019-04-16T21:08:39.881Z,22.70
2019-04-16T21:11:11.448Z,23.10
2019-04-16T21:13:42.952Z,23.77
2019-04-16T21:16:16.948Z,27.90
2019-04-16T21:18:48.413Z,31.70
2019-04-16T21:21:23.563Z,27.67
2019-04-16T21:23:53.944Z,24.40
2019-04-16T21:26:29.578Z,24.00
2019-04-16T21:29:03.626Z,22.25
2019-04-16T21:31:42.297Z,23.70
2019-04-16T21:34:24.220Z,23.38
2019-04-16T21:37:10.668Z,22.52
2019-04-16T21:39:47.083Z,23.18
2019-04-16T21:42:17.474Z,22.52
2019-04-16T21:44:48.974Z,22.17
2019-04-16T21:47:23.140Z,22.52
2019-04-16T21:49:52.902Z,21.12
2019-04-16T21:52:24.470Z,21.37
2019-04-16T21:54:56.024Z,21.82
2019-04-16T21:57:27.693Z,21.27
2019-04-16T21:59:59.425Z,21.65
2019-04-16T22:02:34.634Z,22.10
2019-04-16T22:05:06.916Z,21.80
2019-04-16T22:07:38.500Z,21.10
2019-04-16T22:10:10.128Z,21.68
2019-04-16T22:12:44.807Z,22.42
2019-04-16T22:15:15.704Z,21.62
2019-04-16T22:17:48.115Z,20.55
2019-04-16T22:20:20.788Z,20.68
2019-04-16T22:22:53.793Z,22.40
2019-04-16T22:25:26.893Z,23.65
2019-04-16T22:28:01.742Z,23.52
2019-04-16T22:30:36.608Z,25.08
2019-04-16T22:33:09.243Z,27.25
2019-04-16T22:35:40.916Z,26.48
2019-04-16T22:38:14.313Z,31.73
2019-04-16T22:41:04.532Z,30.62
2019-04-16T22:43:42.627Z,29.80
2019-04-16T22:46:31.919Z,30.02
2019-04-16T22:49:04.533Z,33.02
2019-04-16T22:51:39.771Z,32.17
2019-04-16T22:54:10.650Z,33.10
2019-04-16T22:56:43.287Z,29.77
2019-04-16T22:59:14.311Z,31.57
2019-04-16T23:01:48.110Z,32.25
2019-04-16T23:04:22.821Z,32.85
2019-04-16T23:06:55.088Z,32.78
2019-04-16T23:09:28.050Z,32.05
2019-04-16T23:11:59.735Z,31.25
2019-04-16T23:14:31.700Z,31.02
2019-04-16T23:17:03.956Z,30.35
2019-04-16T23:19:36.305Z,32.63
2019-04-16T23:22:14.050Z,26.87
2019-04-16T23:24:42.873Z,28.45
2019-04-16T23:27:16.033Z,29.37
2019-04-16T23:29:48.219Z,28.45
2019-04-16T23:32:21.372Z,28.10
2019-04-16T23:34:55.749Z,28.47
2019-04-16T23:37:27.434Z,28.07
2019-04-16T23:39:58.887Z,26.97
2019-04-16T23:42:32.479Z,27.02
2019-04-16T23:45:09.470Z,26.60
2019-04-16T23:48:00.302Z,26.00
2019-04-16T23:50:44.297Z,26.85
2019-04-16T23:53:24.740Z,25.23
2019-04-16T23:55:58.637Z,25.05
2019-04-16T23:58:32.662Z,26.35
